sensor_id;sensor_type;location;lat;lon;timestamp;P1;durP1;ratioP1;P2;durP2;ratioP2
63114;SDS011;49208;50.874;6.466;2023-04-25T06:03:12;9.73;;;4.85;;
63114;SDS011;49208;50.874;6.466;2023-04-25T06:05:43;13.13;;;5.00;;
63114;SDS011;49208;50.874;6.466;2023-04-25T06:08:08;11.98;;;4.57;;
63114;SDS011;49208;50.874;6.466;2023-04-25T06:10:35;12.77;;;4.95;;
63114;SDS011;49208;50.874;6.466;2023-04-25T06:13:01;14.48;;;4.15;;
63114;SDS011;49208;50.874;6.466;2023-04-25T06:15:26;16.55;;;4.70;;
63114;SDS011;49208;50.874;6.466;2023-04-25T06:17:51;19.42;;;5.07;;
63114;SDS011;49208;50.874;6.466;2023-04-25T06:20:17;11.65;;;4.35;;
63114;SDS011;49208;50.874;6.466;2023-04-25T06:22:42;9.63;;;4.28;;
63114;SDS011;49208;50.874;6.466;2023-04-25T06:25:08;13.00;;;3.80;;
63114;SDS011;49208;50.874;6.466;2023-04-25T06:27:34;11.07;;;4.95;;
63114;SDS011;49208;50.874;6.466;2023-04-25T06:29:59;12.73;;;3.95;;
63114;SDS011;49208;50.874;6.466;2023-04-25T06:32:24;12.68;;;5.10;;
63114;SDS011;49208;50.874;6.466;2023-04-25T06:37:17;13.70;;;4.68;;
63114;SDS011;49208;50.874;6.466;2023-04-25T06:39:43;16.30;;;4.95;;
63114;SDS011;49208;50.874;6.466;2023-04-25T06:42:08;16.88;;;4.60;;
63114;SDS011;49208;50.874;6.466;2023-04-25T06:44:33;13.13;;;3.78;;
63114;SDS011;49208;50.874;6.466;2023-04-25T06:46:59;14.60;;;5.10;;
63114;SDS011;49208;50.874;6.466;2023-04-25T06:49:24;16.33;;;4.57;;
63114;SDS011;49208;50.874;6.466;2023-04-25T06:51:49;14.25;;;4.63;;
63114;SDS011;49208;50.874;6.466;2023-04-25T06:54:15;13.00;;;4.25;;
63114;SDS011;49208;50.874;6.466;2023-04-25T06:56:40;16.98;;;4.70;;
63114;SDS011;49208;50.874;6.466;2023-04-25T06:59:06;18.40;;;4.95;;
63114;SDS011;49208;50.874;6.466;2023-04-25T07:01:31;11.02;;;3.72;;
63114;SDS011;49208;50.874;6.466;2023-04-25T07:03:56;12.35;;;3.95;;
63114;SDS011;49208;50.874;6.466;2023-04-25T07:06:23;11.18;;;4.13;;
63114;SDS011;49208;50.874;6.466;2023-04-25T07:08:50;15.65;;;3.97;;
63114;SDS011;49208;50.874;6.466;2023-04-25T07:11:16;9.38;;;3.80;;
63114;SDS011;49208;50.874;6.466;2023-04-25T07:13:41;15.07;;;3.83;;
63114;SDS011;49208;50.874;6.466;2023-04-25T07:16:06;9.48;;;4.00;;
63114;SDS011;49208;50.874;6.466;2023-04-25T07:18:32;15.50;;;4.50;;
63114;SDS011;49208;50.874;6.466;2023-04-25T07:20:57;12.07;;;3.97;;
63114;SDS011;49208;50.874;6.466;2023-04-25T07:23:22;13.80;;;4.25;;
63114;SDS011;49208;50.874;6.466;2023-04-25T07:25:48;10.68;;;3.92;;
63114;SDS011;49208;50.874;6.466;2023-04-25T07:28:13;10.25;;;3.55;;
63114;SDS011;49208;50.874;6.466;2023-04-25T07:30:38;12.13;;;3.90;;
63114;SDS011;49208;50.874;6.466;2023-04-25T07:33:04;11.93;;;3.13;;
63114;SDS011;49208;50.874;6.466;2023-04-25T07:35:29;10.88;;;3.00;;
63114;SDS011;49208;50.874;6.466;2023-04-25T07:37:55;9.38;;;3.10;;
63114;SDS011;49208;50.874;6.466;2023-04-25T07:40:20;12.40;;;3.47;;
63114;SDS011;49208;50.874;6.466;2023-04-25T07:42:46;11.98;;;3.28;;
63114;SDS011;49208;50.874;6.466;2023-04-25T07:45:11;10.13;;;3.00;;
63114;SDS011;49208;50.874;6.466;2023-04-25T07:47:37;7.63;;;3.33;;
63114;SDS011;49208;50.874;6.466;2023-04-25T07:50:03;8.48;;;2.50;;
63114;SDS011;49208;50.874;6.466;2023-04-25T07:52:29;11.18;;;2.38;;
63114;SDS011;49208;50.874;6.466;2023-04-25T07:54:54;8.43;;;2.88;;
63114;SDS011;49208;50.874;6.466;2023-04-25T07:57:19;12.25;;;2.97;;
63114;SDS011;49208;50.874;6.466;2023-04-25T07:59:45;12.30;;;3.92;;
63114;SDS011;49208;50.874;6.466;2023-04-25T08:02:10;11.57;;;4.65;;
63114;SDS011;49208;50.874;6.466;2023-04-25T08:04:36;11.07;;;3.65;;
63114;SDS011;49208;50.874;6.466;2023-04-25T08:07:01;7.72;;;2.97;;
63114;SDS011;49208;50.874;6.466;2023-04-25T08:09:27;7.13;;;2.55;;
63114;SDS011;49208;50.874;6.466;2023-04-25T08:11:52;8.07;;;3.30;;
63114;SDS011;49208;50.874;6.466;2023-04-25T08:14:18;6.78;;;3.00;;
63114;SDS011;49208;50.874;6.466;2023-04-25T08:16:43;14.10;;;3.20;;
63114;SDS011;49208;50.874;6.466;2023-04-25T08:19:09;6.13;;;2.90;;
63114;SDS011;49208;50.874;6.466;2023-04-25T08:21:35;8.32;;;2.63;;
63114;SDS011;49208;50.874;6.466;2023-04-25T08:24:01;7.30;;;2.90;;
63114;SDS011;49208;50.874;6.466;2023-04-25T08:26:26;11.32;;;3.20;;
63114;SDS011;49208;50.874;6.466;2023-04-25T08:28:53;10.20;;;3.30;;
63114;SDS011;49208;50.874;6.466;2023-04-25T08:31:18;7.15;;;3.00;;
63114;SDS011;49208;50.874;6.466;2023-04-25T08:33:43;8.02;;;3.42;;
63114;SDS011;49208;50.874;6.466;2023-04-25T08:36:10;6.78;;;2.65;;
63114;SDS011;49208;50.874;6.466;2023-04-25T08:38:35;9.45;;;2.60;;
63114;SDS011;49208;50.874;6.466;2023-04-25T08:41:01;11.85;;;3.15;;
63114;SDS011;49208;50.874;6.466;2023-04-25T08:43:27;8.18;;;4.07;;
63114;SDS011;49208;50.874;6.466;2023-04-25T08:45:56;7.72;;;2.53;;
63114;SDS011;49208;50.874;6.466;2023-04-25T08:48:24;13.57;;;2.65;;
63114;SDS011;49208;50.874;6.466;2023-04-25T08:50:54;9.85;;;2.28;;
63114;SDS011;49208;50.874;6.466;2023-04-25T08:53:27;9.73;;;3.17;;
63114;SDS011;49208;50.874;6.466;2023-04-25T08:55:55;8.88;;;2.55;;
63114;SDS011;49208;50.874;6.466;2023-04-25T09:00:47;6.18;;;2.05;;
63114;SDS011;49208;50.874;6.466;2023-04-25T09:03:13;6.80;;;2.58;;
63114;SDS011;49208;50.874;6.466;2023-04-25T09:05:40;6.57;;;3.03;;
63114;SDS011;49208;50.874;6.466;2023-04-25T09:08:06;8.07;;;2.55;;
63114;SDS011;49208;50.874;6.466;2023-04-25T09:10:32;7.65;;;2.65;;
63114;SDS011;49208;50.874;6.466;2023-04-25T09:13:05;6.47;;;2.45;;
63114;SDS011;49208;50.874;6.466;2023-04-25T09:15:32;10.23;;;2.83;;
63114;SDS011;49208;50.874;6.466;2023-04-25T09:17:58;6.68;;;1.92;;
63114;SDS011;49208;50.874;6.466;2023-04-25T09:20:24;7.70;;;2.23;;
63114;SDS011;49208;50.874;6.466;2023-04-25T09:23:12;8.13;;;2.88;;
63114;SDS011;49208;50.874;6.466;2023-04-25T09:25:36;7.43;;;2.72;;
63114;SDS011;49208;50.874;6.466;2023-04-25T09:28:06;8.27;;;2.70;;
63114;SDS011;49208;50.874;6.466;2023-04-25T09:30:32;12.32;;;2.88;;
63114;SDS011;49208;50.874;6.466;2023-04-25T09:33:05;10.93;;;2.90;;
63114;SDS011;49208;50.874;6.466;2023-04-25T09:35:39;8.00;;;2.80;;
63114;SDS011;49208;50.874;6.466;2023-04-25T09:38:13;7.32;;;2.65;;
63114;SDS011;49208;50.874;6.466;2023-04-25T09:40:43;4.55;;;2.15;;
63114;SDS011;49208;50.874;6.466;2023-04-25T09:43:19;7.75;;;2.60;;
63114;SDS011;49208;50.874;6.466;2023-04-25T09:45:46;7.43;;;2.65;;
63114;SDS011;49208;50.874;6.466;2023-04-25T09:48:21;9.18;;;2.78;;
63114;SDS011;49208;50.874;6.466;2023-04-25T09:51:08;5.95;;;2.47;;
63114;SDS011;49208;50.874;6.466;2023-04-25T09:53:37;6.55;;;2.42;;
63114;SDS011;49208;50.874;6.466;2023-04-25T09:56:05;10.98;;;2.90;;
63114;SDS011;49208;50.874;6.466;2023-04-25T10:01:02;8.50;;;2.58;;
63114;SDS011;49208;50.874;6.466;2023-04-25T10:03:33;6.75;;;3.08;;
63114;SDS011;49208;50.874;6.466;2023-04-25T10:06:00;9.40;;;3.30;;
63114;SDS011;49208;50.874;6.466;2023-04-25T10:08:31;12.70;;;4.05;;
63114;SDS011;49208;50.874;6.466;2023-04-25T10:11:01;10.95;;;3.60;;
63114;SDS011;49208;50.874;6.466;2023-04-25T10:13:28;9.63;;;3.55;;
63114;SDS011;49208;50.874;6.466;2023-04-25T10:15:58;9.45;;;3.15;;
63114;SDS011;49208;50.874;6.466;2023-04-25T10:18:26;8.80;;;2.85;;
63114;SDS011;49208;50.874;6.466;2023-04-25T10:20:53;8.48;;;3.33;;
63114;SDS011;49208;50.874;6.466;2023-04-25T10:23:24;8.95;;;3.83;;
63114;SDS011;49208;50.874;6.466;2023-04-25T10:25:51;8.50;;;2.90;;
63114;SDS011;49208;50.874;6.466;2023-04-25T10:28:18;5.93;;;2.30;;
63114;SDS011;49208;50.874;6.466;2023-04-25T10:31:00;7.15;;;2.40;;
63114;SDS011;49208;50.874;6.466;2023-04-25T10:33:37;8.75;;;2.80;;
63114;SDS011;49208;50.874;6.466;2023-04-25T10:36:20;8.13;;;2.80;;
63114;SDS011;49208;50.874;6.466;2023-04-25T10:38:48;8.80;;;3.42;;
63114;SDS011;49208;50.874;6.466;2023-04-25T10:41:17;9.25;;;3.05;;
63114;SDS011;49208;50.874;6.466;2023-04-25T10:43:47;7.90;;;2.67;;
63114;SDS011;49208;50.874;6.466;2023-04-25T10:46:23;7.57;;;2.55;;
63114;SDS011;49208;50.874;6.466;2023-04-25T10:48:59;8.93;;;3.08;;
63114;SDS011;49208;50.874;6.466;2023-04-25T10:51:28;9.77;;;3.20;;
63114;SDS011;49208;50.874;6.466;2023-04-25T10:59:11;7.30;;;2.97;;
63114;SDS011;49208;50.874;6.466;2023-04-25T11:01:41;6.55;;;3.30;;
63114;SDS011;49208;50.874;6.466;2023-04-25T11:04:25;6.40;;;2.67;;
63114;SDS011;49208;50.874;6.466;2023-04-25T11:07:00;9.38;;;2.47;;
63114;SDS011;49208;50.874;6.466;2023-04-25T11:09:28;7.88;;;2.78;;
63114;SDS011;49208;50.874;6.466;2023-04-25T11:11:56;6.18;;;2.22;;
63114;SDS011;49208;50.874;6.466;2023-04-25T11:14:23;9.20;;;3.22;;
63114;SDS011;49208;50.874;6.466;2023-04-25T11:16:55;8.68;;;2.72;;
63114;SDS011;49208;50.874;6.466;2023-04-25T11:19:22;6.50;;;2.25;;
63114;SDS011;49208;50.874;6.466;2023-04-25T11:21:48;8.27;;;2.53;;
63114;SDS011;49208;50.874;6.466;2023-04-25T11:24:13;4.85;;;2.30;;
63114;SDS011;49208;50.874;6.466;2023-04-25T11:26:41;7.13;;;2.70;;
63114;SDS011;49208;50.874;6.466;2023-04-25T11:29:07;9.38;;;2.40;;
63114;SDS011;49208;50.874;6.466;2023-04-25T11:31:33;5.72;;;2.00;;
63114;SDS011;49208;50.874;6.466;2023-04-25T11:33:58;9.05;;;2.90;;
63114;SDS011;49208;50.874;6.466;2023-04-25T11:36:25;9.93;;;2.70;;
63114;SDS011;49208;50.874;6.466;2023-04-25T11:38:52;8.00;;;3.15;;
63114;SDS011;49208;50.874;6.466;2023-04-25T11:41:18;7.65;;;3.05;;
63114;SDS011;49208;50.874;6.466;2023-04-25T11:43:44;9.52;;;2.65;;
63114;SDS011;49208;50.874;6.466;2023-04-25T11:46:11;5.75;;;2.40;;
63114;SDS011;49208;50.874;6.466;2023-04-25T11:48:42;8.13;;;2.50;;
63114;SDS011;49208;50.874;6.466;2023-04-25T11:51:07;8.90;;;2.35;;
63114;SDS011;49208;50.874;6.466;2023-04-25T11:53:33;5.78;;;2.35;;
63114;SDS011;49208;50.874;6.466;2023-04-25T11:55:59;8.25;;;2.88;;
63114;SDS011;49208;50.874;6.466;2023-04-25T11:58:25;7.75;;;2.35;;
63114;SDS011;49208;50.874;6.466;2023-04-25T12:00:51;6.32;;;2.33;;
63114;SDS011;49208;50.874;6.466;2023-04-25T12:03:17;6.65;;;2.10;;
63114;SDS011;49208;50.874;6.466;2023-04-25T12:05:43;7.80;;;2.50;;
63114;SDS011;49208;50.874;6.466;2023-04-25T12:08:13;5.13;;;1.98;;
63114;SDS011;49208;50.874;6.466;2023-04-25T12:10:40;4.97;;;2.25;;
63114;SDS011;49208;50.874;6.466;2023-04-25T12:13:23;11.30;;;2.88;;
63114;SDS011;49208;50.874;6.466;2023-04-25T12:15:50;5.45;;;1.98;;
63114;SDS011;49208;50.874;6.466;2023-04-25T12:18:18;9.77;;;2.45;;
63114;SDS011;49208;50.874;6.466;2023-04-25T12:20:44;7.20;;;2.20;;
63114;SDS011;49208;50.874;6.466;2023-04-25T12:23:10;10.52;;;2.63;;
63114;SDS011;49208;50.874;6.466;2023-04-25T12:28:15;5.32;;;1.88;;
63114;SDS011;49208;50.874;6.466;2023-04-25T12:31:18;7.57;;;2.60;;
63114;SDS011;49208;50.874;6.466;2023-04-25T12:33:37;6.90;;;2.28;;
63114;SDS011;49208;50.874;6.466;2023-04-25T12:36:04;5.07;;;2.30;;
63114;SDS011;49208;50.874;6.466;2023-04-25T12:38:38;6.50;;;2.80;;
63114;SDS011;49208;50.874;6.466;2023-04-25T12:41:04;5.38;;;2.10;;
63114;SDS011;49208;50.874;6.466;2023-04-25T12:43:32;5.43;;;1.90;;
63114;SDS011;49208;50.874;6.466;2023-04-25T12:45:57;6.72;;;2.00;;
63114;SDS011;49208;50.874;6.466;2023-04-25T12:48:23;6.03;;;2.28;;
63114;SDS011;49208;50.874;6.466;2023-04-25T12:50:49;7.25;;;2.17;;
63114;SDS011;49208;50.874;6.466;2023-04-25T12:53:17;7.40;;;2.25;;
63114;SDS011;49208;50.874;6.466;2023-04-25T12:55:42;7.38;;;2.15;;
63114;SDS011;49208;50.874;6.466;2023-04-25T12:58:08;6.35;;;1.90;;
63114;SDS011;49208;50.874;6.466;2023-04-25T13:00:33;4.53;;;2.15;;
63114;SDS011;49208;50.874;6.466;2023-04-25T13:02:59;7.07;;;2.10;;
63114;SDS011;49208;50.874;6.466;2023-04-25T13:05:24;6.38;;;2.10;;
63114;SDS011;49208;50.874;6.466;2023-04-25T13:07:50;4.85;;;1.90;;
63114;SDS011;49208;50.874;6.466;2023-04-25T13:10:16;5.20;;;1.70;;
63114;SDS011;49208;50.874;6.466;2023-04-25T13:12:42;6.07;;;2.10;;
63114;SDS011;49208;50.874;6.466;2023-04-25T13:15:08;7.38;;;2.33;;
63114;SDS011;49208;50.874;6.466;2023-04-25T13:20:01;4.70;;;2.15;;
63114;SDS011;49208;50.874;6.466;2023-04-25T13:22:27;5.80;;;1.75;;
63114;SDS011;49208;50.874;6.466;2023-04-25T13:24:52;7.80;;;2.30;;
63114;SDS011;49208;50.874;6.466;2023-04-25T13:27:18;6.53;;;2.63;;
63114;SDS011;49208;50.874;6.466;2023-04-25T13:29:43;9.00;;;2.70;;
63114;SDS011;49208;50.874;6.466;2023-04-25T13:32:08;6.45;;;2.10;;
63114;SDS011;49208;50.874;6.466;2023-04-25T13:34:34;5.13;;;1.60;;
63114;SDS011;49208;50.874;6.466;2023-04-25T13:37:00;4.10;;;1.52;;
63114;SDS011;49208;50.874;6.466;2023-04-25T13:39:25;6.97;;;2.08;;
63114;SDS011;49208;50.874;6.466;2023-04-25T13:41:50;4.28;;;1.88;;
63114;SDS011;49208;50.874;6.466;2023-04-25T13:44:16;6.78;;;2.13;;
63114;SDS011;49208;50.874;6.466;2023-04-25T13:46:41;6.88;;;2.40;;
63114;SDS011;49208;50.874;6.466;2023-04-25T13:49:06;7.30;;;2.78;;
63114;SDS011;49208;50.874;6.466;2023-04-25T13:51:32;5.55;;;2.50;;
63114;SDS011;49208;50.874;6.466;2023-04-25T13:53:57;8.45;;;2.95;;
63114;SDS011;49208;50.874;6.466;2023-04-25T13:56:23;8.25;;;1.80;;
63114;SDS011;49208;50.874;6.466;2023-04-25T13:58:51;7.78;;;2.17;;
63114;SDS011;49208;50.874;6.466;2023-04-25T14:01:19;5.88;;;2.05;;
63114;SDS011;49208;50.874;6.466;2023-04-25T14:03:46;4.80;;;2.20;;
63114;SDS011;49208;50.874;6.466;2023-04-25T14:06:11;4.40;;;1.60;;
63114;SDS011;49208;50.874;6.466;2023-04-25T14:08:37;4.53;;;1.65;;
63114;SDS011;49208;50.874;6.466;2023-04-25T14:11:04;3.80;;;1.83;;
63114;SDS011;49208;50.874;6.466;2023-04-25T14:13:30;4.13;;;1.77;;
63114;SDS011;49208;50.874;6.466;2023-04-25T14:15:55;5.78;;;2.08;;
63114;SDS011;49208;50.874;6.466;2023-04-25T14:18:21;8.55;;;2.25;;
63114;SDS011;49208;50.874;6.466;2023-04-25T14:20:46;4.78;;;1.77;;
63114;SDS011;49208;50.874;6.466;2023-04-25T14:23:12;4.88;;;2.10;;
63114;SDS011;49208;50.874;6.466;2023-04-25T14:25:38;5.13;;;1.75;;
63114;SDS011;49208;50.874;6.466;2023-04-25T14:28:04;6.57;;;2.22;;
63114;SDS011;49208;50.874;6.466;2023-04-25T14:30:30;9.48;;;2.05;;
63114;SDS011;49208;50.874;6.466;2023-04-25T14:32:55;5.70;;;2.05;;
63114;SDS011;49208;50.874;6.466;2023-04-25T14:35:20;4.70;;;2.25;;
63114;SDS011;49208;50.874;6.466;2023-04-25T14:37:46;4.95;;;2.40;;
63114;SDS011;49208;50.874;6.466;2023-04-25T14:40:11;7.50;;;2.35;;
63114;SDS011;49208;50.874;6.466;2023-04-25T14:42:38;5.03;;;2.07;;
63114;SDS011;49208;50.874;6.466;2023-04-25T14:45:05;3.50;;;1.90;;
63114;SDS011;49208;50.874;6.466;2023-04-25T14:47:32;4.72;;;1.95;;
63114;SDS011;49208;50.874;6.466;2023-04-25T14:49:57;5.65;;;2.30;;
63114;SDS011;49208;50.874;6.466;2023-04-25T14:52:23;7.50;;;2.22;;
63114;SDS011;49208;50.874;6.466;2023-04-25T14:54:48;6.40;;;2.58;;
63114;SDS011;49208;50.874;6.466;2023-04-25T14:57:14;6.60;;;2.13;;
63114;SDS011;49208;50.874;6.466;2023-04-25T14:59:40;5.50;;;2.22;;
63114;SDS011;49208;50.874;6.466;2023-04-25T15:02:06;5.72;;;2.03;;
63114;SDS011;49208;50.874;6.466;2023-04-25T15:04:31;5.05;;;2.10;;
63114;SDS011;49208;50.874;6.466;2023-04-25T15:06:57;4.15;;;1.83;;
63114;SDS011;49208;50.874;6.466;2023-04-25T15:09:22;5.53;;;1.65;;
63114;SDS011;49208;50.874;6.466;2023-04-25T15:11:49;5.50;;;2.13;;
63114;SDS011;49208;50.874;6.466;2023-04-25T15:14:14;5.15;;;1.48;;
63114;SDS011;49208;50.874;6.466;2023-04-25T15:16:40;4.45;;;1.58;;
63114;SDS011;49208;50.874;6.466;2023-04-25T15:19:05;3.00;;;1.25;;
63114;SDS011;49208;50.874;6.466;2023-04-25T15:21:31;5.75;;;1.80;;
63114;SDS011;49208;50.874;6.466;2023-04-25T15:23:56;3.53;;;1.58;;
63114;SDS011;49208;50.874;6.466;2023-04-25T15:26:22;6.18;;;1.55;;
63114;SDS011;49208;50.874;6.466;2023-04-25T15:28:47;6.97;;;1.92;;
63114;SDS011;49208;50.874;6.466;2023-04-25T15:31:13;5.35;;;2.00;;
63114;SDS011;49208;50.874;6.466;2023-04-25T15:33:39;5.03;;;1.65;;
63114;SDS011;49208;50.874;6.466;2023-04-25T15:36:04;7.95;;;1.80;;
63114;SDS011;49208;50.874;6.466;2023-04-25T15:38:30;10.13;;;1.75;;
63114;SDS011;49208;50.874;6.466;2023-04-25T15:40:55;4.32;;;1.70;;
63114;SDS011;49208;50.874;6.466;2023-04-25T15:43:22;5.50;;;1.92;;
63114;SDS011;49208;50.874;6.466;2023-04-25T15:45:47;5.00;;;1.40;;
63114;SDS011;49208;50.874;6.466;2023-04-25T15:48:13;3.17;;;1.20;;
63114;SDS011;49208;50.874;6.466;2023-04-25T15:50:38;5.70;;;1.30;;
63114;SDS011;49208;50.874;6.466;2023-04-25T15:53:04;2.90;;;1.20;;
63114;SDS011;49208;50.874;6.466;2023-04-25T15:55:29;4.93;;;1.42;;
63114;SDS011;49208;50.874;6.466;2023-04-25T15:57:54;3.38;;;1.27;;
63114;SDS011;49208;50.874;6.466;2023-04-25T16:00:20;3.75;;;1.17;;
63114;SDS011;49208;50.874;6.466;2023-04-25T16:02:46;2.28;;;1.05;;
63114;SDS011;49208;50.874;6.466;2023-04-25T16:05:12;3.65;;;1.10;;
63114;SDS011;49208;50.874;6.466;2023-04-25T16:07:39;3.00;;;1.30;;
63114;SDS011;49208;50.874;6.466;2023-04-25T16:10:06;4.30;;;1.50;;
63114;SDS011;49208;50.874;6.466;2023-04-25T16:12:32;5.22;;;1.30;;
63114;SDS011;49208;50.874;6.466;2023-04-25T16:14:57;5.45;;;1.40;;
63114;SDS011;49208;50.874;6.466;2023-04-25T16:17:25;4.63;;;1.40;;
63114;SDS011;49208;50.874;6.466;2023-04-25T16:19:53;2.95;;;1.27;;
63114;SDS011;49208;50.874;6.466;2023-04-25T16:22:19;3.58;;;1.52;;
63114;SDS011;49208;50.874;6.466;2023-04-25T16:24:45;4.15;;;1.50;;
63114;SDS011;49208;50.874;6.466;2023-04-25T16:27:10;2.60;;;1.05;;
63114;SDS011;49208;50.874;6.466;2023-04-25T16:29:36;6.70;;;1.40;;
63114;SDS011;49208;50.874;6.466;2023-04-25T16:32:01;3.85;;;1.17;;
63114;SDS011;49208;50.874;6.466;2023-04-25T16:34:27;4.90;;;1.40;;
63114;SDS011;49208;50.874;6.466;2023-04-25T16:36:52;4.13;;;1.50;;
63114;SDS011;49208;50.874;6.466;2023-04-25T16:39:19;4.82;;;1.70;;
63114;SDS011;49208;50.874;6.466;2023-04-25T16:41:46;2.30;;;1.08;;
63114;SDS011;49208;50.874;6.466;2023-04-25T16:44:11;4.57;;;1.40;;
63114;SDS011;49208;50.874;6.466;2023-04-25T16:46:37;5.20;;;1.25;;
63114;SDS011;49208;50.874;6.466;2023-04-25T16:49:03;3.42;;;1.40;;
63114;SDS011;49208;50.874;6.466;2023-04-25T16:51:28;7.88;;;1.50;;
63114;SDS011;49208;50.874;6.466;2023-04-25T16:53:53;5.68;;;1.15;;
63114;SDS011;49208;50.874;6.466;2023-04-25T16:56:20;3.92;;;1.27;;
63114;SDS011;49208;50.874;6.466;2023-04-25T16:58:46;3.40;;;1.30;;
63114;SDS011;49208;50.874;6.466;2023-04-25T17:01:12;5.38;;;1.00;;
63114;SDS011;49208;50.874;6.466;2023-04-25T17:06:05;3.03;;;1.42;;
63114;SDS011;49208;50.874;6.466;2023-04-25T17:08:31;5.60;;;2.33;;
63114;SDS011;49208;50.874;6.466;2023-04-25T17:10:56;4.43;;;1.40;;
63114;SDS011;49208;50.874;6.466;2023-04-25T17:13:23;7.25;;;2.03;;
63114;SDS011;49208;50.874;6.466;2023-04-25T17:15:49;3.00;;;1.20;;
63114;SDS011;49208;50.874;6.466;2023-04-25T17:18:15;3.88;;;1.17;;
63114;SDS011;49208;50.874;6.466;2023-04-25T17:20:41;4.22;;;1.25;;
63114;SDS011;49208;50.874;6.466;2023-04-25T17:23:06;3.42;;;1.42;;
63114;SDS011;49208;50.874;6.466;2023-04-25T17:25:32;4.15;;;1.40;;
63114;SDS011;49208;50.874;6.466;2023-04-25T17:27:57;3.95;;;1.75;;
63114;SDS011;49208;50.874;6.466;2023-04-25T17:30:23;4.88;;;1.80;;
63114;SDS011;49208;50.874;6.466;2023-04-25T17:32:48;4.57;;;1.65;;
63114;SDS011;49208;50.874;6.466;2023-04-25T17:35:13;5.20;;;1.85;;
63114;SDS011;49208;50.874;6.466;2023-04-25T17:37:41;6.22;;;2.45;;
63114;SDS011;49208;50.874;6.466;2023-04-25T17:40:07;4.40;;;1.50;;
63114;SDS011;49208;50.874;6.466;2023-04-25T17:42:36;5.72;;;2.20;;
63114;SDS011;49208;50.874;6.466;2023-04-25T17:45:02;3.27;;;1.50;;
63114;SDS011;49208;50.874;6.466;2023-04-25T17:47:28;5.57;;;1.50;;
63114;SDS011;49208;50.874;6.466;2023-04-25T17:49:53;5.85;;;1.80;;
63114;SDS011;49208;50.874;6.466;2023-04-25T17:52:20;3.28;;;1.45;;
63114;SDS011;49208;50.874;6.466;2023-04-25T17:54:46;6.70;;;1.80;;
63114;SDS011;49208;50.874;6.466;2023-04-25T17:57:11;5.15;;;1.60;;
63114;SDS011;49208;50.874;6.466;2023-04-25T17:59:37;5.05;;;1.83;;
63114;SDS011;49208;50.874;6.466;2023-04-25T18:02:02;3.92;;;1.50;;
63114;SDS011;49208;50.874;6.466;2023-04-25T18:04:28;5.07;;;1.65;;
63114;SDS011;49208;50.874;6.466;2023-04-25T18:06:53;3.55;;;1.60;;
63114;SDS011;49208;50.874;6.466;2023-04-25T18:09:19;6.00;;;2.38;;
63114;SDS011;49208;50.874;6.466;2023-04-25T18:11:47;4.15;;;1.50;;
63114;SDS011;49208;50.874;6.466;2023-04-25T18:14:14;5.75;;;1.75;;
63114;SDS011;49208;50.874;6.466;2023-04-25T18:16:41;3.15;;;1.52;;
63114;SDS011;49208;50.874;6.466;2023-04-25T18:19:07;4.33;;;1.47;;
63114;SDS011;49208;50.874;6.466;2023-04-25T18:21:39;4.90;;;1.90;;
63114;SDS011;49208;50.874;6.466;2023-04-25T18:24:09;4.07;;;1.42;;
63114;SDS011;49208;50.874;6.466;2023-04-25T18:26:37;7.07;;;2.47;;
63114;SDS011;49208;50.874;6.466;2023-04-25T18:29:03;4.75;;;1.73;;
63114;SDS011;49208;50.874;6.466;2023-04-25T18:31:28;4.88;;;1.80;;
63114;SDS011;49208;50.874;6.466;2023-04-25T18:33:56;4.22;;;1.52;;
63114;SDS011;49208;50.874;6.466;2023-04-25T18:36:21;5.65;;;1.83;;
63114;SDS011;49208;50.874;6.466;2023-04-25T18:38:47;4.82;;;1.63;;
63114;SDS011;49208;50.874;6.466;2023-04-25T18:41:15;5.10;;;1.50;;
63114;SDS011;49208;50.874;6.466;2023-04-25T18:43:41;3.72;;;1.40;;
63114;SDS011;49208;50.874;6.466;2023-04-25T18:46:08;5.10;;;1.48;;
63114;SDS011;49208;50.874;6.466;2023-04-25T18:48:33;5.70;;;1.77;;
63114;SDS011;49208;50.874;6.466;2023-04-25T18:50:59;8.15;;;2.72;;
63114;SDS011;49208;50.874;6.466;2023-04-25T18:53:24;4.95;;;1.90;;
63114;SDS011;49208;50.874;6.466;2023-04-25T18:55:50;8.27;;;2.17;;
63114;SDS011;49208;50.874;6.466;2023-04-25T18:58:15;5.28;;;1.55;;
63114;SDS011;49208;50.874;6.466;2023-04-25T19:00:41;5.50;;;1.70;;
63114;SDS011;49208;50.874;6.466;2023-04-25T19:03:06;3.78;;;1.52;;
63114;SDS011;49208;50.874;6.466;2023-04-25T19:05:31;4.38;;;1.58;;
63114;SDS011;49208;50.874;6.466;2023-04-25T19:07:57;5.15;;;2.22;;
63114;SDS011;49208;50.874;6.466;2023-04-25T19:10:23;5.82;;;1.80;;
63114;SDS011;49208;50.874;6.466;2023-04-25T19:12:50;5.15;;;1.90;;
63114;SDS011;49208;50.874;6.466;2023-04-25T19:15:16;4.07;;;1.80;;
63114;SDS011;49208;50.874;6.466;2023-04-25T19:17:42;8.45;;;2.40;;
63114;SDS011;49208;50.874;6.466;2023-04-25T19:20:07;6.15;;;2.08;;
63114;SDS011;49208;50.874;6.466;2023-04-25T19:22:33;5.65;;;2.05;;
63114;SDS011;49208;50.874;6.466;2023-04-25T19:24:59;3.97;;;2.17;;
63114;SDS011;49208;50.874;6.466;2023-04-25T19:27:25;5.25;;;2.20;;
63114;SDS011;49208;50.874;6.466;2023-04-25T19:29:50;7.70;;;2.63;;
63114;SDS011;49208;50.874;6.466;2023-04-25T19:32:21;4.97;;;1.60;;
63114;SDS011;49208;50.874;6.466;2023-04-25T19:34:48;7.00;;;2.80;;
63114;SDS011;49208;50.874;6.466;2023-04-25T19:37:13;6.88;;;3.13;;
63114;SDS011;49208;50.874;6.466;2023-04-25T19:39:39;6.75;;;3.75;;
63114;SDS011;49208;50.874;6.466;2023-04-25T19:42:04;5.45;;;2.58;;
63114;SDS011;49208;50.874;6.466;2023-04-25T19:44:30;7.47;;;2.97;;
63114;SDS011;49208;50.874;6.466;2023-04-25T19:46:56;6.38;;;3.55;;
63114;SDS011;49208;50.874;6.466;2023-04-25T19:49:23;9.43;;;4.65;;
63114;SDS011;49208;50.874;6.466;2023-04-25T19:51:49;7.32;;;4.00;;
63114;SDS011;49208;50.874;6.466;2023-04-25T19:54:15;8.00;;;3.20;;
63114;SDS011;49208;50.874;6.466;2023-04-25T19:56:40;7.32;;;3.08;;
63114;SDS011;49208;50.874;6.466;2023-04-25T19:59:06;5.78;;;2.67;;
63114;SDS011;49208;50.874;6.466;2023-04-25T20:01:31;7.65;;;2.80;;
63114;SDS011;49208;50.874;6.466;2023-04-25T20:03:57;6.85;;;2.67;;
63114;SDS011;49208;50.874;6.466;2023-04-25T20:06:22;7.32;;;3.00;;
63114;SDS011;49208;50.874;6.466;2023-04-25T20:08:49;7.22;;;3.40;;
63114;SDS011;49208;50.874;6.466;2023-04-25T20:11:17;7.55;;;3.25;;
63114;SDS011;49208;50.874;6.466;2023-04-25T20:13:42;5.57;;;2.30;;
63114;SDS011;49208;50.874;6.466;2023-04-25T20:16:08;6.20;;;2.75;;
63114;SDS011;49208;50.874;6.466;2023-04-25T20:18:34;5.65;;;2.95;;
63114;SDS011;49208;50.874;6.466;2023-04-25T20:21:00;7.15;;;2.85;;
63114;SDS011;49208;50.874;6.466;2023-04-25T20:23:26;7.47;;;3.25;;
63114;SDS011;49208;50.874;6.466;2023-04-25T20:25:51;5.93;;;2.70;;
63114;SDS011;49208;50.874;6.466;2023-04-25T20:28:17;6.18;;;2.63;;
63114;SDS011;49208;50.874;6.466;2023-04-25T20:30:43;5.57;;;2.97;;
63114;SDS011;49208;50.874;6.466;2023-04-25T20:33:08;5.80;;;2.83;;
63114;SDS011;49208;50.874;6.466;2023-04-25T20:35:34;7.20;;;2.58;;
63114;SDS011;49208;50.874;6.466;2023-04-25T20:38:00;6.15;;;2.22;;
63114;SDS011;49208;50.874;6.466;2023-04-25T20:40:26;6.47;;;2.67;;
63114;SDS011;49208;50.874;6.466;2023-04-25T20:42:51;5.82;;;3.03;;
63114;SDS011;49208;50.874;6.466;2023-04-25T20:45:17;6.50;;;2.58;;
63114;SDS011;49208;50.874;6.466;2023-04-25T20:47:42;8.25;;;2.60;;
63114;SDS011;49208;50.874;6.466;2023-04-25T20:50:08;5.20;;;2.28;;
63114;SDS011;49208;50.874;6.466;2023-04-25T20:52:35;6.97;;;3.05;;
63114;SDS011;49208;50.874;6.466;2023-04-25T20:55:01;9.02;;;3.65;;
63114;SDS011;49208;50.874;6.466;2023-04-25T20:57:26;7.45;;;3.35;;
63114;SDS011;49208;50.874;6.466;2023-04-25T20:59:53;6.80;;;3.40;;
63114;SDS011;49208;50.874;6.466;2023-04-25T21:02:18;7.07;;;3.67;;
63114;SDS011;49208;50.874;6.466;2023-04-25T21:04:44;8.50;;;3.22;;